Ayden, NC (28513)

7:17 PM EDT on September 02, 2015 (GMT -0400)
Pitt-Greenville | | Change Station
CLOSE
Current Station
Airport
Location: Greenville,
Elevation: 26 ft
Nearby Weather Stations

Elev 26 ft 35.64 °N, 77.39 °W | Updated 22 minutes ago

Clear
Clear
86 °F
Feels Like 92 °F
N
0
Wind Variable Wind from North

Today
High -- | Low -- °F
--% Chance of Precip.
Yesterday
High -- | Low -- °F
Precip. -- in
6:42 AM 7:35 PM
Waning Gibbous, 76% visible
Pressure 29.96 in
Visibility 7.0 miles
Clouds Clear
Heat Index 92 °F
Dew Point 72 °F
Humidity 62%
Rainfall 0.00 in
Snow Depth Not available.
UV 0 out of 12
Pollen 8.50 out of 12
Air Quality Not available.
Flu Activity Not available.
METAR KPGV 022255Z AUTO 00000KT 7SM CLR 30/22 A2996 RMK AO2
Pressure 29.96 in
Visibility 7.0 miles
Clouds Clear
Heat Index 92 °F
Dew Point 72 °F
Humidity 62%
Rainfall 0.00 in
Snow Depth Not available.
UV 0 out of 12
Pollen 8.50 out of 12
Air Quality Not available.
Flu Activity Not available.
METAR KPGV 022255Z AUTO 00000KT 7SM CLR 30/22 A2996 RMK AO2

10-Day Weather Forecast

×

Almanac

Astronomy

Sep. 02, 2015 Rise Set
Actual Time
Civil Twilight
Nautical Twilight
Astronomical Twilight
Moon
Length of Visible Light
Length of Day
Tomorrow will be .
, % of the Moon is Illuminated

Today's Extremes

State Highs State Lows

Community

WunderPhotos

Upload Photos

1,851,823 photos uploaded!

WunderBlogs® & News

Nearby

Air Quality

  Air Quality AQ Index Pollutant
Not available.

Snow Depth

Station Depth Elevation

Earthquake Activity

City Distance Mag. Time & Date
Minimum magnitude displayed is 2.5.

Coastal Water Temperatures

Place Temperature

Stations

Nearby Weather Stations

Station Location Temp. Windchill Dew Point Humidity Wind Precip. Elev Updated Type